createdAt,value
2022-11-17T00:01:19.009Z,6.09
2022-11-17T00:03:46.756Z,6.08
2022-11-17T00:06:13.290Z,6.10
2022-11-17T00:08:39.631Z,6.08
2022-11-17T00:11:06.154Z,6.01
2022-11-17T00:13:51.109Z,6.04
2022-11-17T00:16:18.455Z,6.08
2022-11-17T00:19:03.440Z,6.06
2022-11-17T00:21:30.078Z,6.08
2022-11-17T00:23:56.438Z,6.00
2022-11-17T00:26:30.073Z,6.02
2022-11-17T00:29:06.933Z,6.01
2022-11-17T00:32:12.249Z,6.04
2022-11-17T00:34:38.777Z,5.99
2022-11-17T00:37:05.291Z,5.96
2022-11-17T00:39:31.640Z,5.93
2022-11-17T00:41:58.438Z,5.91
2022-11-17T00:44:25.527Z,5.88
2022-11-17T00:46:51.945Z,5.90
2022-11-17T00:49:20.065Z,5.85
2022-11-17T00:51:46.410Z,5.85
2022-11-17T00:54:13.285Z,5.87
2022-11-17T00:56:39.948Z,5.81
2022-11-17T00:59:06.371Z,5.85
2022-11-17T01:01:32.836Z,5.84
2022-11-17T01:04:03.402Z,5.82
2022-11-17T01:06:35.069Z,5.81
2022-11-17T01:09:07.067Z,5.84
2022-11-17T01:11:33.410Z,5.82
2022-11-17T01:14:00.081Z,5.81
2022-11-17T01:16:26.681Z,5.83
2022-11-17T01:18:53.106Z,5.80
2022-11-17T01:21:23.979Z,5.84
2022-11-17T01:23:51.707Z,5.81
2022-11-17T01:26:19.973Z,5.79
2022-11-17T01:28:47.552Z,5.84
2022-11-17T01:31:15.656Z,5.85
2022-11-17T01:33:42.062Z,5.83
2022-11-17T01:36:14.262Z,5.83
2022-11-17T01:38:40.673Z,5.78
2022-11-17T01:41:12.182Z,5.80
2022-11-17T01:43:43.745Z,5.78
2022-11-17T01:46:18.158Z,5.74
2022-11-17T01:48:44.545Z,5.77
2022-11-17T01:51:12.607Z,5.73
2022-11-17T01:53:39.129Z,5.82
2022-11-17T01:56:07.896Z,5.77
2022-11-17T01:58:36.840Z,5.76
2022-11-17T02:01:03.211Z,5.79
2022-11-17T02:03:30.784Z,5.76
2022-11-17T02:06:01.979Z,5.83
2022-11-17T02:08:29.024Z,5.81
2022-11-17T02:10:55.417Z,5.80
2022-11-17T02:13:21.958Z,5.80
2022-11-17T02:15:48.352Z,5.82
2022-11-17T02:18:16.060Z,5.80
2022-11-17T02:21:09.027Z,5.76
2022-11-17T02:23:38.342Z,5.82
2022-11-17T02:26:04.672Z,5.78
2022-11-17T02:29:00.157Z,5.77
2022-11-17T02:31:38.717Z,5.82
2022-11-17T02:34:06.697Z,5.78
2022-11-17T02:36:55.573Z,5.77
2022-11-17T02:39:59.316Z,5.77
2022-11-17T02:42:52.064Z,5.78
2022-11-17T02:45:21.273Z,5.83
2022-11-17T02:47:48.441Z,5.78
2022-11-17T02:50:14.889Z,5.80
2022-11-17T02:52:41.237Z,5.79
2022-11-17T02:55:09.120Z,5.78
2022-11-17T02:57:40.026Z,5.70
2022-11-17T03:00:14.689Z,5.69
2022-11-17T03:02:47.295Z,5.71
2022-11-17T03:05:23.825Z,5.70
2022-11-17T03:08:30.126Z,5.68
2022-11-17T03:11:00.999Z,5.62
2022-11-17T03:13:33.876Z,5.67
2022-11-17T03:16:31.123Z,5.58
2022-11-17T03:19:17.453Z,5.65
2022-11-17T03:21:46.898Z,5.69
2022-11-17T03:24:25.422Z,5.66
2022-11-17T03:26:54.421Z,5.65
2022-11-17T03:29:22.074Z,5.66
2022-11-17T03:31:49.137Z,5.58
2022-11-17T03:34:16.978Z,5.58
2022-11-17T03:36:46.329Z,5.55
2022-11-17T03:39:20.716Z,5.55
2022-11-17T03:41:48.004Z,5.52
2022-11-17T03:44:14.622Z,5.48
2022-11-17T03:46:40.992Z,5.46
2022-11-17T03:49:26.139Z,5.44
2022-11-17T03:51:52.513Z,5.43
2022-11-17T03:54:18.853Z,5.49
2022-11-17T03:56:58.606Z,5.45
2022-11-17T03:59:33.565Z,5.44
2022-11-17T04:01:59.989Z,5.45
2022-11-17T04:04:46.397Z,5.38
2022-11-17T04:07:12.845Z,5.39
2022-11-17T04:09:39.270Z,5.34
2022-11-17T04:12:24.313Z,5.37
2022-11-17T04:15:09.219Z,5.43
2022-11-17T04:17:35.752Z,5.43
2022-11-17T04:20:02.189Z,5.40
2022-11-17T04:22:28.573Z,5.36
2022-11-17T04:24:54.933Z,5.33
2022-11-17T04:27:40.046Z,5.36
2022-11-17T04:30:06.816Z,5.36
2022-11-17T04:32:33.174Z,5.34
2022-11-17T04:34:59.530Z,5.29
2022-11-17T04:37:25.877Z,5.30
2022-11-17T04:39:52.244Z,5.30
2022-11-17T04:42:18.601Z,5.37
2022-11-17T04:44:44.970Z,5.35
2022-11-17T04:47:11.330Z,5.29
2022-11-17T04:49:37.694Z,5.30
2022-11-17T04:52:04.483Z,5.33
2022-11-17T04:54:30.904Z,5.33
2022-11-17T04:56:57.388Z,5.35
2022-11-17T04:59:23.809Z,5.33
2022-11-17T05:01:50.277Z,5.37
2022-11-17T05:04:36.809Z,5.38
2022-11-17T05:07:03.458Z,5.32
2022-11-17T05:09:29.904Z,5.24
2022-11-17T05:12:14.864Z,5.27
2022-11-17T05:14:41.310Z,5.30
2022-11-17T05:17:11.770Z,5.29
2022-11-17T05:19:44.139Z,5.32
2022-11-17T05:22:29.676Z,5.29
2022-11-17T05:24:56.131Z,5.29
2022-11-17T05:27:22.791Z,5.25
2022-11-17T05:29:49.178Z,5.18
2022-11-17T05:32:15.642Z,5.20
2022-11-17T05:34:41.976Z,5.19
2022-11-17T05:37:08.352Z,5.19
2022-11-17T05:39:34.713Z,5.10
2022-11-17T05:42:01.137Z,5.11
2022-11-17T05:44:27.502Z,5.17
2022-11-17T05:46:53.888Z,5.18
2022-11-17T05:49:20.237Z,5.19
2022-11-17T05:51:52.338Z,5.14
2022-11-17T05:54:19.171Z,5.12
2022-11-17T05:56:53.313Z,5.10
2022-11-17T05:59:42.799Z,5.09
2022-11-17T06:02:11.765Z,5.02
2022-11-17T06:04:38.252Z,5.01
2022-11-17T06:07:04.686Z,5.05
2022-11-17T06:09:35.356Z,5.06
2022-11-17T06:12:05.917Z,5.09
2022-11-17T06:14:33.953Z,5.06
2022-11-17T06:17:03.284Z,5.03
2022-11-17T06:19:41.397Z,5.05
2022-11-17T06:22:12.747Z,5.08
2022-11-17T06:24:39.694Z,5.10
2022-11-17T06:27:06.149Z,5.09
2022-11-17T06:29:32.502Z,5.08
2022-11-17T06:31:58.877Z,5.08
2022-11-17T06:34:25.987Z,4.97
2022-11-17T06:36:53.465Z,5.02
2022-11-17T06:39:19.866Z,5.01
2022-11-17T06:41:46.210Z,5.04
2022-11-17T06:44:12.635Z,5.05
2022-11-17T06:46:38.965Z,5.03
2022-11-17T06:49:08.534Z,4.98
2022-11-17T06:51:35.604Z,4.98
2022-11-17T06:54:03.155Z,4.96
2022-11-17T06:56:29.561Z,4.78
2022-11-17T06:58:56.445Z,4.84
2022-11-17T07:01:22.900Z,4.89
2022-11-17T07:03:49.463Z,4.88
2022-11-17T07:06:16.176Z,4.88
2022-11-17T07:08:42.667Z,4.89
2022-11-17T07:11:10.502Z,4.85
2022-11-17T07:13:37.133Z,4.89
2022-11-17T07:16:07.407Z,4.75
2022-11-17T07:18:34.179Z,4.78
2022-11-17T07:21:05.160Z,4.74
2022-11-17T07:23:32.155Z,4.77
2022-11-17T07:25:58.961Z,4.75
2022-11-17T07:28:25.673Z,4.79
2022-11-17T07:30:52.465Z,4.79
2022-11-17T07:33:18.920Z,4.75
2022-11-17T07:35:45.380Z,4.78
2022-11-17T07:38:11.747Z,4.72
2022-11-17T07:40:38.114Z,4.78
2022-11-17T07:43:04.526Z,4.78
2022-11-17T07:45:32.323Z,4.71
2022-11-17T07:48:00.226Z,4.75
2022-11-17T07:50:26.848Z,4.72
2022-11-17T07:52:54.675Z,4.73
2022-11-17T07:55:21.272Z,4.69
2022-11-17T07:57:47.851Z,4.67
2022-11-17T08:00:14.850Z,4.71
2022-11-17T08:02:41.186Z,4.67
2022-11-17T08:05:07.921Z,4.75
2022-11-17T08:07:34.303Z,4.73
2022-11-17T08:10:00.705Z,4.70
2022-11-17T08:12:27.052Z,4.67
2022-11-17T08:14:53.442Z,4.67
2022-11-17T08:17:19.785Z,4.69
2022-11-17T08:19:46.157Z,4.68
2022-11-17T08:22:12.516Z,4.68
2022-11-17T08:24:38.876Z,4.68
2022-11-17T08:27:05.247Z,4.70
2022-11-17T08:29:31.605Z,4.65
2022-11-17T08:31:57.954Z,4.70
2022-11-17T08:34:24.322Z,4.65
2022-11-17T08:36:50.692Z,4.63
2022-11-17T08:39:17.075Z,4.69
2022-11-17T08:41:43.441Z,4.68
2022-11-17T08:44:09.783Z,4.65
2022-11-17T08:46:36.133Z,4.69
2022-11-17T08:49:02.937Z,4.67
2022-11-17T08:51:29.510Z,4.66
2022-11-17T08:53:56.092Z,4.65
2022-11-17T08:56:22.445Z,4.63
2022-11-17T08:58:48.900Z,4.65
2022-11-17T09:01:15.812Z,4.65
2022-11-17T09:03:44.114Z,4.70
2022-11-17T09:06:10.764Z,4.74
2022-11-17T09:08:46.266Z,4.70
2022-11-17T09:11:14.392Z,4.71
2022-11-17T09:13:41.166Z,4.72
2022-11-17T09:16:09.192Z,4.69
2022-11-17T09:18:36.797Z,4.66
2022-11-17T09:21:05.503Z,4.63
2022-11-17T09:23:32.105Z,4.67
2022-11-17T09:25:59.160Z,4.66
2022-11-17T09:28:25.954Z,4.67
2022-11-17T09:30:52.776Z,4.68
2022-11-17T09:33:19.431Z,4.72
2022-11-17T09:35:46.154Z,4.71
2022-11-17T09:38:12.594Z,4.75
2022-11-17T09:40:39.244Z,4.74
2022-11-17T09:43:08.724Z,4.79
2022-11-17T09:45:35.869Z,4.79
2022-11-17T09:48:41.497Z,4.83
2022-11-17T09:51:01.376Z,4.81
2022-11-17T09:53:51.236Z,4.85
2022-11-17T09:56:17.589Z,4.88
2022-11-17T09:58:51.227Z,4.86
2022-11-17T10:01:18.919Z,4.89
2022-11-17T10:03:47.692Z,4.91
2022-11-17T10:06:17.386Z,4.93
2022-11-17T10:08:54.337Z,4.94
2022-11-17T10:11:32.888Z,4.91
2022-11-17T10:14:08.362Z,4.92
2022-11-17T10:16:35.651Z,4.90
2022-11-17T10:19:18.883Z,4.91
2022-11-17T10:21:45.667Z,4.96
2022-11-17T10:24:12.064Z,4.98
2022-11-17T10:26:46.806Z,4.85
2022-11-17T10:29:14.274Z,4.92
2022-11-17T10:31:45.400Z,4.97
2022-11-17T10:34:12.909Z,4.98
2022-11-17T10:36:46.696Z,5.00
2022-11-17T10:39:32.104Z,5.01
2022-11-17T10:41:58.451Z,5.00
2022-11-17T10:44:26.062Z,4.98
2022-11-17T10:47:02.812Z,5.08
2022-11-17T10:49:36.610Z,5.06
2022-11-17T10:52:09.327Z,4.95
2022-11-17T10:54:35.809Z,5.04
2022-11-17T10:57:02.195Z,5.06
2022-11-17T10:59:30.601Z,5.09
2022-11-17T11:01:56.985Z,5.10
2022-11-17T11:04:34.920Z,5.08
2022-11-17T11:07:22.819Z,5.14
2022-11-17T11:10:07.020Z,5.17
2022-11-17T11:12:35.412Z,5.12
2022-11-17T11:15:02.245Z,5.11
2022-11-17T11:17:28.638Z,5.13
2022-11-17T11:19:55.028Z,5.19
2022-11-17T11:22:42.206Z,5.17
2022-11-17T11:25:31.047Z,5.12
2022-11-17T11:28:12.604Z,5.17
2022-11-17T11:30:47.324Z,5.15
2022-11-17T11:33:19.599Z,5.19
2022-11-17T11:35:50.273Z,5.18
2022-11-17T11:38:38.659Z,5.20
2022-11-17T11:41:27.439Z,5.22
2022-11-17T11:44:03.048Z,5.23
2022-11-17T11:47:19.414Z,5.27
2022-11-17T11:49:50.575Z,5.32
2022-11-17T11:52:27.060Z,5.27
2022-11-17T11:54:58.848Z,5.31
2022-11-17T11:57:28.636Z,5.34
2022-11-17T12:00:16.040Z,5.39
2022-11-17T12:03:06.607Z,5.40
2022-11-17T12:06:33.815Z,5.39
2022-11-17T12:09:06.397Z,5.39
2022-11-17T12:11:51.232Z,5.44
2022-11-17T12:14:18.515Z,5.46
2022-11-17T12:16:44.929Z,5.46
2022-11-17T12:19:47.392Z,5.44
2022-11-17T12:22:29.029Z,5.43
2022-11-17T12:25:14.270Z,5.45
2022-11-17T12:27:41.868Z,5.46
2022-11-17T12:30:28.522Z,5.47
2022-11-17T12:32:55.271Z,5.47
2022-11-17T12:35:31.226Z,5.43
2022-11-17T12:38:19.918Z,5.39
2022-11-17T12:40:49.562Z,5.44
2022-11-17T12:43:15.926Z,5.45
2022-11-17T12:46:01.056Z,5.45
2022-11-17T12:48:33.933Z,5.44
2022-11-17T12:51:46.364Z,5.47
2022-11-17T12:54:22.556Z,5.50
2022-11-17T12:56:56.446Z,5.50
2022-11-17T12:59:34.214Z,5.50
2022-11-17T13:02:38.079Z,5.52
2022-11-17T13:05:24.087Z,5.47
2022-11-17T13:07:50.752Z,5.49
2022-11-17T13:10:24.129Z,5.50
2022-11-17T13:12:50.477Z,5.46
2022-11-17T13:15:21.893Z,5.50
2022-11-17T13:17:48.504Z,5.47
2022-11-17T13:20:27.565Z,5.46
2022-11-17T13:23:06.403Z,5.46
2022-11-17T13:25:33.340Z,5.45
2022-11-17T13:28:04.530Z,5.47
2022-11-17T13:30:32.489Z,5.47
2022-11-17T13:33:00.462Z,5.43
2022-11-17T13:35:31.354Z,5.50
2022-11-17T13:38:19.817Z,5.48
2022-11-17T13:40:46.743Z,5.53
2022-11-17T13:43:14.945Z,5.52
2022-11-17T13:45:43.219Z,5.54
2022-11-17T13:48:48.138Z,5.56
2022-11-17T13:51:15.130Z,5.57
2022-11-17T13:53:42.505Z,5.58
2022-11-17T13:56:30.880Z,5.61
2022-11-17T13:58:57.388Z,5.61
2022-11-17T14:01:25.413Z,5.62
2022-11-17T14:03:52.303Z,5.61
2022-11-17T14:06:18.868Z,5.59
2022-11-17T14:09:02.136Z,5.58
2022-11-17T14:11:28.494Z,5.57
2022-11-17T14:13:58.703Z,5.59
2022-11-17T14:16:27.157Z,5.53
2022-11-17T14:19:01.837Z,5.59
2022-11-17T14:21:28.389Z,5.57
2022-11-17T14:24:05.911Z,5.58
2022-11-17T14:26:32.316Z,5.60
2022-11-17T14:29:04.816Z,5.59
2022-11-17T14:31:31.366Z,5.58
2022-11-17T14:33:57.967Z,5.57
2022-11-17T14:36:24.345Z,5.57
2022-11-17T14:38:50.695Z,5.52
2022-11-17T14:41:17.751Z,5.51
2022-11-17T14:43:44.416Z,5.53
2022-11-17T14:46:18.219Z,5.52
2022-11-17T14:48:44.560Z,5.51
2022-11-17T14:51:11.060Z,5.51
2022-11-17T14:53:41.918Z,5.50
2022-11-17T14:56:09.138Z,5.49
2022-11-17T14:58:35.803Z,5.49
2022-11-17T15:01:13.296Z,5.49
2022-11-17T15:03:39.727Z,5.48
2022-11-17T15:06:07.914Z,5.48
2022-11-17T15:08:34.455Z,5.45
2022-11-17T15:11:00.818Z,5.48
2022-11-17T15:13:29.161Z,5.45
2022-11-17T15:16:04.983Z,5.48
2022-11-17T15:18:32.123Z,5.48
2022-11-17T15:21:06.617Z,5.42
2022-11-17T15:23:33.570Z,5.45
2022-11-17T15:25:59.992Z,5.44
2022-11-17T15:28:30.538Z,5.49
2022-11-17T15:30:57.068Z,5.49
2022-11-17T15:33:23.803Z,5.45
2022-11-17T15:36:03.157Z,5.46
2022-11-17T15:38:29.549Z,5.45
2022-11-17T15:40:55.975Z,5.43
2022-11-17T15:43:26.389Z,5.43
2022-11-17T15:45:52.753Z,5.45
2022-11-17T15:48:19.111Z,5.44
2022-11-17T15:50:45.446Z,5.42
2022-11-17T15:53:11.855Z,5.42
2022-11-17T15:55:39.239Z,5.46
2022-11-17T15:58:05.586Z,5.46
2022-11-17T16:00:33.621Z,5.43
2022-11-17T16:03:00.044Z,5.42
2022-11-17T16:05:26.526Z,5.40
2022-11-17T16:07:52.899Z,5.41
2022-11-17T16:10:19.253Z,5.41
2022-11-17T16:12:45.615Z,5.42
2022-11-17T16:15:11.994Z,5.43
2022-11-17T16:17:38.357Z,5.40
2022-11-17T16:20:05.300Z,5.42
2022-11-17T16:22:31.779Z,5.40
2022-11-17T16:24:58.214Z,5.44
2022-11-17T16:27:24.557Z,5.45
2022-11-17T16:29:50.940Z,5.45
2022-11-17T16:32:17.477Z,5.46
2022-11-17T16:34:48.812Z,5.42
2022-11-17T16:37:15.333Z,5.45
2022-11-17T16:39:41.697Z,5.45
2022-11-17T16:42:10.925Z,5.44
2022-11-17T16:44:37.362Z,5.39
2022-11-17T16:47:03.863Z,5.43
2022-11-17T16:49:32.046Z,5.44
2022-11-17T16:51:58.451Z,5.44
2022-11-17T16:54:24.815Z,5.45
2022-11-17T16:56:51.198Z,5.44
2022-11-17T16:59:17.948Z,5.46
2022-11-17T17:01:44.610Z,5.44
2022-11-17T17:04:12.212Z,5.40
2022-11-17T17:06:39.944Z,5.41
2022-11-17T17:09:07.291Z,5.42
2022-11-17T17:11:34.499Z,5.46
2022-11-17T17:14:03.075Z,5.47
2022-11-17T17:16:29.785Z,5.46
2022-11-17T17:19:00.646Z,5.45
2022-11-17T17:21:27.833Z,5.46
2022-11-17T17:23:54.287Z,5.42
2022-11-17T17:26:22.249Z,5.43
2022-11-17T17:28:50.213Z,5.45
2022-11-17T17:31:21.307Z,5.45
2022-11-17T17:33:48.382Z,5.46
2022-11-17T17:36:17.020Z,5.45
2022-11-17T17:38:43.550Z,5.45
2022-11-17T17:41:11.615Z,5.47
2022-11-17T17:43:38.105Z,5.47
2022-11-17T17:46:15.548Z,5.48
2022-11-17T17:48:43.489Z,5.45
2022-11-17T17:51:17.320Z,5.45
2022-11-17T17:53:43.774Z,5.43
2022-11-17T17:56:12.796Z,5.46
2022-11-17T17:58:42.525Z,5.46
2022-11-17T18:01:16.035Z,5.44
2022-11-17T18:03:43.260Z,5.39
2022-11-17T18:06:09.988Z,5.42
2022-11-17T18:08:36.601Z,5.41
2022-11-17T18:11:07.679Z,5.44
2022-11-17T18:13:35.381Z,5.45
2022-11-17T18:16:09.693Z,5.45
2022-11-17T18:18:36.273Z,5.47
2022-11-17T18:21:05.011Z,5.45
2022-11-17T18:23:31.562Z,5.46
2022-11-17T18:25:58.029Z,5.48
2022-11-17T18:28:24.889Z,5.47
2022-11-17T18:30:51.315Z,5.47
2022-11-17T18:33:17.655Z,5.47
2022-11-17T18:35:44.101Z,5.48
2022-11-17T18:38:10.525Z,5.48
2022-11-17T18:40:36.935Z,5.46
2022-11-17T18:43:03.294Z,5.48
2022-11-17T18:45:29.725Z,5.47
2022-11-17T18:47:56.081Z,5.46
2022-11-17T18:50:22.441Z,5.47
2022-11-17T18:52:48.860Z,5.46
2022-11-17T18:55:15.265Z,5.45
2022-11-17T18:57:45.005Z,5.46
2022-11-17T19:00:12.224Z,5.41
2022-11-17T19:02:38.613Z,5.45
2022-11-17T19:05:05.375Z,5.43
2022-11-17T19:07:32.152Z,5.45
2022-11-17T19:09:58.606Z,5.46
2022-11-17T19:12:25.112Z,5.45
2022-11-17T19:14:51.456Z,5.46
2022-11-17T19:17:18.160Z,5.43
2022-11-17T19:19:44.716Z,5.41
2022-11-17T19:22:11.219Z,5.43
2022-11-17T19:24:39.706Z,5.42
2022-11-17T19:27:06.074Z,5.43
2022-11-17T19:29:32.471Z,5.47
2022-11-17T19:31:58.829Z,5.44
2022-11-17T19:34:25.511Z,5.44
2022-11-17T19:36:51.895Z,5.41
2022-11-17T19:39:18.657Z,5.45
2022-11-17T19:41:47.437Z,5.40
2022-11-17T19:44:13.875Z,5.39
2022-11-17T19:46:40.261Z,5.37
2022-11-17T19:49:07.581Z,5.37
2022-11-17T19:51:36.213Z,5.35
2022-11-17T19:54:04.016Z,5.40
2022-11-17T19:56:30.545Z,5.37
2022-11-17T19:58:57.031Z,5.37
2022-11-17T20:01:25.344Z,5.38
2022-11-17T20:03:51.905Z,5.38
2022-11-17T20:06:19.772Z,5.36
2022-11-17T20:08:46.284Z,5.40
2022-11-17T20:11:17.444Z,5.38
2022-11-17T20:13:43.873Z,5.42
2022-11-17T20:16:12.672Z,5.36
2022-11-17T20:18:40.680Z,5.38
2022-11-17T20:21:07.353Z,5.40
2022-11-17T20:23:37.046Z,5.41
2022-11-17T20:26:13.350Z,5.42
2022-11-17T20:28:39.735Z,5.39
2022-11-17T20:31:10.244Z,5.38
2022-11-17T20:33:37.932Z,5.36
2022-11-17T20:36:04.831Z,5.40
2022-11-17T20:38:33.529Z,5.39
2022-11-17T20:41:00.323Z,5.32
2022-11-17T20:43:27.003Z,5.36
2022-11-17T20:45:53.878Z,5.38
2022-11-17T20:48:20.461Z,5.39
2022-11-17T20:51:06.781Z,5.40
2022-11-17T20:53:33.278Z,5.38
2022-11-17T20:56:00.949Z,5.33
2022-11-17T20:58:27.397Z,5.34
2022-11-17T21:00:54.036Z,5.37
2022-11-17T21:03:20.475Z,5.37
2022-11-17T21:05:58.803Z,5.38
2022-11-17T21:08:29.610Z,5.39
2022-11-17T21:11:00.648Z,5.37
2022-11-17T21:13:27.315Z,5.36
2022-11-17T21:16:07.455Z,5.37
2022-11-17T21:18:34.043Z,5.36
2022-11-17T21:21:01.492Z,5.35
2022-11-17T21:23:27.927Z,5.37
2022-11-17T21:25:56.322Z,5.34
2022-11-17T21:28:22.675Z,5.35
2022-11-17T21:30:49.029Z,5.37
2022-11-17T21:33:15.424Z,5.36
2022-11-17T21:35:41.859Z,5.37
2022-11-17T21:38:10.612Z,5.40
2022-11-17T21:40:36.944Z,5.36
2022-11-17T21:43:03.441Z,5.31
2022-11-17T21:45:29.816Z,5.29
2022-11-17T21:47:59.378Z,5.23
2022-11-17T21:50:26.021Z,5.26
2022-11-17T21:52:52.375Z,5.26
2022-11-17T21:55:18.790Z,5.26
2022-11-17T21:57:45.224Z,5.27
2022-11-17T22:00:12.167Z,5.23
2022-11-17T22:02:38.551Z,5.26
2022-11-17T22:05:05.376Z,5.29
2022-11-17T22:07:31.867Z,5.27
2022-11-17T22:09:58.299Z,5.27
2022-11-17T22:12:24.698Z,5.25
2022-11-17T22:14:51.134Z,5.26
2022-11-17T22:17:17.985Z,5.27
2022-11-17T22:19:44.358Z,5.27
2022-11-17T22:22:10.740Z,5.27
2022-11-17T22:24:39.636Z,5.24
2022-11-17T22:27:06.506Z,5.25
2022-11-17T22:29:33.136Z,5.28
2022-11-17T22:31:59.494Z,5.29
2022-11-17T22:34:25.868Z,5.30
2022-11-17T22:36:52.240Z,5.25
2022-11-17T22:39:18.932Z,5.26
2022-11-17T22:41:45.638Z,5.23
2022-11-17T22:44:15.575Z,5.22
2022-11-17T22:46:43.128Z,5.25
2022-11-17T22:49:10.064Z,5.20
2022-11-17T22:51:55.003Z,5.21
2022-11-17T22:54:21.389Z,5.18
2022-11-17T22:56:48.375Z,5.18
2022-11-17T22:59:15.066Z,5.11
2022-11-17T23:01:41.901Z,5.11
2022-11-17T23:04:08.298Z,5.14
2022-11-17T23:06:34.663Z,5.14
2022-11-17T23:09:01.035Z,5.17
2022-11-17T23:11:37.160Z,5.08
2022-11-17T23:14:05.280Z,5.11
2022-11-17T23:16:33.032Z,5.13
2022-11-17T23:18:59.392Z,5.15
2022-11-17T23:21:25.759Z,5.10
2022-11-17T23:23:52.135Z,5.06
2022-11-17T23:26:18.557Z,5.07
2022-11-17T23:28:45.073Z,5.03
2022-11-17T23:31:13.096Z,5.07
2022-11-17T23:33:43.963Z,5.10
2022-11-17T23:36:23.432Z,5.08
2022-11-17T23:38:50.326Z,5.07
2022-11-17T23:41:19.097Z,5.10
2022-11-17T23:43:45.472Z,5.10
2022-11-17T23:46:13.683Z,5.08
2022-11-17T23:48:40.647Z,5.10
2022-11-17T23:51:08.281Z,5.03
2022-11-17T23:53:34.813Z,5.03
2022-11-17T23:56:01.275Z,5.03
2022-11-17T23:58:27.876Z,5.06
